sensor_id;sensor_type;location;lat;lon;timestamp;P1;durP1;ratioP1;P2;durP2;ratioP2
37485;SDS011;23341;50.296;18.960;2023-12-20T00:00:12;15.57;;;9.07;;
37485;SDS011;23341;50.296;18.960;2023-12-20T00:05:39;16.60;;;9.65;;
37485;SDS011;23341;50.296;18.960;2023-12-20T00:10:43;18.90;;;10.32;;
37485;SDS011;23341;50.296;18.960;2023-12-20T00:15:48;15.57;;;10.13;;
37485;SDS011;23341;50.296;18.960;2023-12-20T00:20:54;14.50;;;10.27;;
37485;SDS011;23341;50.296;18.960;2023-12-20T00:25:58;16.48;;;9.35;;
37485;SDS011;23341;50.296;18.960;2023-12-20T00:31:03;19.33;;;11.10;;
37485;SDS011;23341;50.296;18.960;2023-12-20T00:36:09;17.17;;;11.00;;
37485;SDS011;23341;50.296;18.960;2023-12-20T00:41:14;16.13;;;10.43;;
37485;SDS011;23341;50.296;18.960;2023-12-20T00:46:18;10.55;;;7.82;;
37485;SDS011;23341;50.296;18.960;2023-12-20T00:51:24;13.15;;;8.30;;
37485;SDS011;23341;50.296;18.960;2023-12-20T00:56:28;14.10;;;8.30;;
37485;SDS011;23341;50.296;18.960;2023-12-20T01:01:33;11.50;;;8.70;;
37485;SDS011;23341;50.296;18.960;2023-12-20T01:06:39;11.02;;;8.20;;
37485;SDS011;23341;50.296;18.960;2023-12-20T01:11:43;13.38;;;8.20;;
37485;SDS011;23341;50.296;18.960;2023-12-20T01:16:48;12.02;;;7.22;;
37485;SDS011;23341;50.296;18.960;2023-12-20T01:21:54;10.75;;;6.85;;
37485;SDS011;23341;50.296;18.960;2023-12-20T01:26:59;11.30;;;7.05;;
37485;SDS011;23341;50.296;18.960;2023-12-20T01:32:04;9.90;;;7.20;;
37485;SDS011;23341;50.296;18.960;2023-12-20T01:37:10;9.18;;;6.97;;
37485;SDS011;23341;50.296;18.960;2023-12-20T01:42:15;9.10;;;5.68;;
37485;SDS011;23341;50.296;18.960;2023-12-20T01:47:19;9.50;;;6.47;;
37485;SDS011;23341;50.296;18.960;2023-12-20T01:52:26;8.73;;;6.03;;
37485;SDS011;23341;50.296;18.960;2023-12-20T01:57:31;6.80;;;5.93;;
37485;SDS011;23341;50.296;18.960;2023-12-20T02:02:36;6.22;;;5.63;;
37485;SDS011;23341;50.296;18.960;2023-12-20T02:07:44;6.05;;;5.20;;
37485;SDS011;23341;50.296;18.960;2023-12-20T02:12:51;9.73;;;6.32;;
37485;SDS011;23341;50.296;18.960;2023-12-20T02:17:55;7.05;;;6.18;;
37485;SDS011;23341;50.296;18.960;2023-12-20T02:23:01;7.35;;;5.25;;
37485;SDS011;23341;50.296;18.960;2023-12-20T02:28:06;11.27;;;5.75;;
37485;SDS011;23341;50.296;18.960;2023-12-20T02:33:10;7.30;;;6.18;;
37485;SDS011;23341;50.296;18.960;2023-12-20T02:38:19;7.15;;;5.50;;
37485;SDS011;23341;50.296;18.960;2023-12-20T02:43:24;7.15;;;5.30;;
37485;SDS011;23341;50.296;18.960;2023-12-20T02:48:28;8.15;;;6.88;;
37485;SDS011;23341;50.296;18.960;2023-12-20T02:53:34;10.43;;;6.07;;
37485;SDS011;23341;50.296;18.960;2023-12-20T02:58:39;9.88;;;6.18;;
37485;SDS011;23341;50.296;18.960;2023-12-20T03:03:43;9.80;;;7.10;;
37485;SDS011;23341;50.296;18.960;2023-12-20T03:08:49;11.45;;;7.70;;
37485;SDS011;23341;50.296;18.960;2023-12-20T03:13:54;14.70;;;8.05;;
37485;SDS011;23341;50.296;18.960;2023-12-20T03:18:58;9.85;;;7.78;;
37485;SDS011;23341;50.296;18.960;2023-12-20T03:24:04;15.50;;;10.20;;
37485;SDS011;23341;50.296;18.960;2023-12-20T03:29:09;12.32;;;8.20;;
37485;SDS011;23341;50.296;18.960;2023-12-20T03:34:14;14.50;;;8.77;;
37485;SDS011;23341;50.296;18.960;2023-12-20T03:39:20;13.95;;;9.15;;
37485;SDS011;23341;50.296;18.960;2023-12-20T03:44:24;15.93;;;9.75;;
37485;SDS011;23341;50.296;18.960;2023-12-20T03:49:29;18.75;;;10.23;;
37485;SDS011;23341;50.296;18.960;2023-12-20T03:54:36;18.70;;;10.98;;
37485;SDS011;23341;50.296;18.960;2023-12-20T03:59:40;16.33;;;11.90;;
37485;SDS011;23341;50.296;18.960;2023-12-20T04:04:45;18.67;;;12.80;;
37485;SDS011;23341;50.296;18.960;2023-12-20T04:09:51;18.92;;;12.73;;
37485;SDS011;23341;50.296;18.960;2023-12-20T04:14:56;18.40;;;12.98;;
37485;SDS011;23341;50.296;18.960;2023-12-20T04:20:00;19.45;;;13.30;;
37485;SDS011;23341;50.296;18.960;2023-12-20T04:25:07;15.88;;;11.57;;
37485;SDS011;23341;50.296;18.960;2023-12-20T04:30:12;21.75;;;13.88;;
37485;SDS011;23341;50.296;18.960;2023-12-20T04:35:17;22.40;;;14.35;;
37485;SDS011;23341;50.296;18.960;2023-12-20T04:40:23;23.63;;;11.82;;
37485;SDS011;23341;50.296;18.960;2023-12-20T04:45:28;21.98;;;14.25;;
37485;SDS011;23341;50.296;18.960;2023-12-20T04:50:32;20.90;;;15.13;;
37485;SDS011;23341;50.296;18.960;2023-12-20T04:55:39;33.72;;;17.27;;
37485;SDS011;23341;50.296;18.960;2023-12-20T05:00:43;41.80;;;23.05;;
37485;SDS011;23341;50.296;18.960;2023-12-20T05:05:49;36.70;;;21.65;;
37485;SDS011;23341;50.296;18.960;2023-12-20T05:10:55;39.53;;;20.75;;
37485;SDS011;23341;50.296;18.960;2023-12-20T05:16:00;38.00;;;21.38;;
37485;SDS011;23341;50.296;18.960;2023-12-20T05:21:04;42.88;;;24.20;;
37485;SDS011;23341;50.296;18.960;2023-12-20T05:26:10;44.05;;;24.40;;
37485;SDS011;23341;50.296;18.960;2023-12-20T05:31:15;41.78;;;24.67;;
37485;SDS011;23341;50.296;18.960;2023-12-20T05:36:19;44.38;;;25.30;;
37485;SDS011;23341;50.296;18.960;2023-12-20T05:41:25;39.33;;;25.15;;
37485;SDS011;23341;50.296;18.960;2023-12-20T05:46:30;42.78;;;25.58;;
37485;SDS011;23341;50.296;18.960;2023-12-20T05:51:34;52.10;;;27.83;;
37485;SDS011;23341;50.296;18.960;2023-12-20T05:56:40;45.28;;;26.40;;
37485;SDS011;23341;50.296;18.960;2023-12-20T06:01:45;42.90;;;24.80;;
37485;SDS011;23341;50.296;18.960;2023-12-20T06:06:50;41.65;;;23.98;;
37485;SDS011;23341;50.296;18.960;2023-12-20T06:11:56;46.75;;;25.98;;
37485;SDS011;23341;50.296;18.960;2023-12-20T06:17:00;50.45;;;24.75;;
37485;SDS011;23341;50.296;18.960;2023-12-20T06:22:05;43.92;;;22.83;;
37485;SDS011;23341;50.296;18.960;2023-12-20T06:27:11;45.20;;;25.05;;
37485;SDS011;23341;50.296;18.960;2023-12-20T06:32:16;38.65;;;25.75;;
37485;SDS011;23341;50.296;18.960;2023-12-20T06:37:20;42.90;;;27.33;;
37485;SDS011;23341;50.296;18.960;2023-12-20T06:42:27;43.20;;;25.83;;
37485;SDS011;23341;50.296;18.960;2023-12-20T06:47:35;41.25;;;25.05;;
37485;SDS011;23341;50.296;18.960;2023-12-20T06:52:42;45.70;;;29.08;;
37485;SDS011;23341;50.296;18.960;2023-12-20T06:57:48;40.35;;;23.52;;
37485;SDS011;23341;50.296;18.960;2023-12-20T07:02:53;46.97;;;27.27;;
37485;SDS011;23341;50.296;18.960;2023-12-20T07:07:58;50.63;;;29.02;;
37485;SDS011;23341;50.296;18.960;2023-12-20T07:13:04;43.60;;;26.27;;
37485;SDS011;23341;50.296;18.960;2023-12-20T07:18:09;50.00;;;24.33;;
37485;SDS011;23341;50.296;18.960;2023-12-20T07:23:14;49.85;;;26.95;;
37485;SDS011;23341;50.296;18.960;2023-12-20T07:28:19;60.47;;;33.25;;
37485;SDS011;23341;50.296;18.960;2023-12-20T07:33:24;57.05;;;30.25;;
37485;SDS011;23341;50.296;18.960;2023-12-20T07:38:29;50.30;;;29.23;;
37485;SDS011;23341;50.296;18.960;2023-12-20T07:43:35;50.88;;;29.48;;
37485;SDS011;23341;50.296;18.960;2023-12-20T07:48:39;51.05;;;29.65;;
37485;SDS011;23341;50.296;18.960;2023-12-20T07:53:47;58.50;;;34.40;;
37485;SDS011;23341;50.296;18.960;2023-12-20T07:58:53;48.13;;;29.00;;
37485;SDS011;23341;50.296;18.960;2023-12-20T08:04:02;41.53;;;22.63;;
37485;SDS011;23341;50.296;18.960;2023-12-20T08:09:06;60.15;;;35.42;;
37485;SDS011;23341;50.296;18.960;2023-12-20T08:14:12;69.13;;;38.45;;
37485;SDS011;23341;50.296;18.960;2023-12-20T08:19:19;49.17;;;32.72;;
37485;SDS011;23341;50.296;18.960;2023-12-20T08:24:24;62.15;;;33.42;;
37485;SDS011;23341;50.296;18.960;2023-12-20T08:29:30;64.32;;;37.85;;
37485;SDS011;23341;50.296;18.960;2023-12-20T08:34:35;77.55;;;44.47;;
37485;SDS011;23341;50.296;18.960;2023-12-20T08:39:40;68.25;;;40.10;;
37485;SDS011;23341;50.296;18.960;2023-12-20T08:44:49;65.47;;;40.10;;
37485;SDS011;23341;50.296;18.960;2023-12-20T08:49:54;73.97;;;38.30;;
37485;SDS011;23341;50.296;18.960;2023-12-20T08:55:01;65.95;;;38.70;;
37485;SDS011;23341;50.296;18.960;2023-12-20T09:00:08;63.22;;;35.17;;
37485;SDS011;23341;50.296;18.960;2023-12-20T09:05:13;70.10;;;41.50;;
37485;SDS011;23341;50.296;18.960;2023-12-20T09:10:18;64.95;;;36.33;;
37485;SDS011;23341;50.296;18.960;2023-12-20T09:15:26;57.38;;;33.90;;
37485;SDS011;23341;50.296;18.960;2023-12-20T09:20:37;59.60;;;35.65;;
37485;SDS011;23341;50.296;18.960;2023-12-20T09:25:45;92.60;;;47.33;;
37485;SDS011;23341;50.296;18.960;2023-12-20T09:30:51;136.65;;;59.33;;
37485;SDS011;23341;50.296;18.960;2023-12-20T09:35:56;53.85;;;29.95;;
37485;SDS011;23341;50.296;18.960;2023-12-20T09:41:01;60.30;;;33.42;;
37485;SDS011;23341;50.296;18.960;2023-12-20T09:46:08;78.13;;;38.17;;
37485;SDS011;23341;50.296;18.960;2023-12-20T09:51:20;52.90;;;32.08;;
37485;SDS011;23341;50.296;18.960;2023-12-20T09:56:26;59.17;;;32.17;;
37485;SDS011;23341;50.296;18.960;2023-12-20T10:01:33;51.65;;;33.88;;
37485;SDS011;23341;50.296;18.960;2023-12-20T10:06:39;54.63;;;33.08;;
37485;SDS011;23341;50.296;18.960;2023-12-20T10:11:44;46.78;;;30.42;;
37485;SDS011;23341;50.296;18.960;2023-12-20T10:16:51;46.42;;;30.60;;
37485;SDS011;23341;50.296;18.960;2023-12-20T10:21:57;62.47;;;39.50;;
37485;SDS011;23341;50.296;18.960;2023-12-20T10:27:03;64.40;;;40.13;;
37485;SDS011;23341;50.296;18.960;2023-12-20T10:32:23;71.13;;;43.75;;
37485;SDS011;23341;50.296;18.960;2023-12-20T10:37:29;55.63;;;33.20;;
37485;SDS011;23341;50.296;18.960;2023-12-20T10:42:34;90.18;;;52.75;;
37485;SDS011;23341;50.296;18.960;2023-12-20T10:47:41;66.78;;;41.78;;
37485;SDS011;23341;50.296;18.960;2023-12-20T10:52:47;61.22;;;35.42;;
37485;SDS011;23341;50.296;18.960;2023-12-20T10:57:52;65.22;;;38.85;;
37485;SDS011;23341;50.296;18.960;2023-12-20T11:03:00;61.45;;;34.58;;
37485;SDS011;23341;50.296;18.960;2023-12-20T11:08:06;71.75;;;42.70;;
37485;SDS011;23341;50.296;18.960;2023-12-20T11:13:17;50.67;;;31.38;;
37485;SDS011;23341;50.296;18.960;2023-12-20T11:18:29;45.88;;;27.00;;
37485;SDS011;23341;50.296;18.960;2023-12-20T11:23:34;79.35;;;48.42;;
37485;SDS011;23341;50.296;18.960;2023-12-20T11:28:39;55.47;;;32.25;;
37485;SDS011;23341;50.296;18.960;2023-12-20T11:33:45;79.82;;;44.40;;
37485;SDS011;23341;50.296;18.960;2023-12-20T11:38:55;89.82;;;50.22;;
37485;SDS011;23341;50.296;18.960;2023-12-20T11:44:03;77.57;;;47.80;;
37485;SDS011;23341;50.296;18.960;2023-12-20T11:49:10;69.82;;;44.13;;
37485;SDS011;23341;50.296;18.960;2023-12-20T11:54:15;71.72;;;45.53;;
37485;SDS011;23341;50.296;18.960;2023-12-20T11:59:20;71.95;;;42.83;;
37485;SDS011;23341;50.296;18.960;2023-12-20T12:04:27;61.17;;;38.75;;
37485;SDS011;23341;50.296;18.960;2023-12-20T12:09:32;59.72;;;30.58;;
37485;SDS011;23341;50.296;18.960;2023-12-20T12:14:37;53.88;;;31.48;;
37485;SDS011;23341;50.296;18.960;2023-12-20T12:19:44;75.05;;;48.05;;
37485;SDS011;23341;50.296;18.960;2023-12-20T12:24:49;72.18;;;45.67;;
37485;SDS011;23341;50.296;18.960;2023-12-20T12:30:00;72.47;;;45.78;;
37485;SDS011;23341;50.296;18.960;2023-12-20T12:35:08;81.50;;;49.03;;
37485;SDS011;23341;50.296;18.960;2023-12-20T12:40:14;72.18;;;41.33;;
37485;SDS011;23341;50.296;18.960;2023-12-20T12:45:19;74.90;;;49.40;;
37485;SDS011;23341;50.296;18.960;2023-12-20T12:50:26;52.28;;;34.25;;
37485;SDS011;23341;50.296;18.960;2023-12-20T12:55:31;46.03;;;29.35;;
37485;SDS011;23341;50.296;18.960;2023-12-20T13:00:37;29.95;;;20.10;;
37485;SDS011;23341;50.296;18.960;2023-12-20T13:05:43;43.95;;;27.90;;
37485;SDS011;23341;50.296;18.960;2023-12-20T13:10:48;54.15;;;33.22;;
37485;SDS011;23341;50.296;18.960;2023-12-20T13:15:53;69.55;;;42.20;;
37485;SDS011;23341;50.296;18.960;2023-12-20T13:20:59;54.95;;;30.92;;
37485;SDS011;23341;50.296;18.960;2023-12-20T13:26:03;57.83;;;36.47;;
37485;SDS011;23341;50.296;18.960;2023-12-20T13:31:08;61.88;;;39.78;;
37485;SDS011;23341;50.296;18.960;2023-12-20T13:36:14;59.95;;;37.88;;
37485;SDS011;23341;50.296;18.960;2023-12-20T13:41:19;54.58;;;33.90;;
37485;SDS011;23341;50.296;18.960;2023-12-20T13:46:23;62.20;;;37.90;;
37485;SDS011;23341;50.296;18.960;2023-12-20T13:51:29;75.82;;;46.70;;
37485;SDS011;23341;50.296;18.960;2023-12-20T13:56:34;100.07;;;56.08;;
37485;SDS011;23341;50.296;18.960;2023-12-20T14:01:49;83.45;;;50.75;;
37485;SDS011;23341;50.296;18.960;2023-12-20T14:06:55;79.85;;;52.35;;
37485;SDS011;23341;50.296;18.960;2023-12-20T14:12:00;80.35;;;48.97;;
37485;SDS011;23341;50.296;18.960;2023-12-20T14:17:05;94.68;;;52.85;;
37485;SDS011;23341;50.296;18.960;2023-12-20T14:22:12;84.07;;;48.47;;
37485;SDS011;23341;50.296;18.960;2023-12-20T14:27:19;101.43;;;58.90;;
37485;SDS011;23341;50.296;18.960;2023-12-20T14:32:27;88.10;;;54.38;;
37485;SDS011;23341;50.296;18.960;2023-12-20T14:37:33;88.25;;;50.58;;
37485;SDS011;23341;50.296;18.960;2023-12-20T14:42:37;107.70;;;52.42;;
37485;SDS011;23341;50.296;18.960;2023-12-20T14:47:42;118.75;;;63.67;;
37485;SDS011;23341;50.296;18.960;2023-12-20T14:52:49;120.00;;;61.80;;
37485;SDS011;23341;50.296;18.960;2023-12-20T14:57:55;89.18;;;56.53;;
37485;SDS011;23341;50.296;18.960;2023-12-20T15:03:01;106.53;;;52.92;;
37485;SDS011;23341;50.296;18.960;2023-12-20T15:08:08;133.32;;;70.40;;
37485;SDS011;23341;50.296;18.960;2023-12-20T15:13:13;122.35;;;62.47;;
37485;SDS011;23341;50.296;18.960;2023-12-20T15:18:18;95.35;;;56.63;;
37485;SDS011;23341;50.296;18.960;2023-12-20T15:23:24;131.35;;;70.60;;
37485;SDS011;23341;50.296;18.960;2023-12-20T15:28:31;95.50;;;50.37;;
37485;SDS011;23341;50.296;18.960;2023-12-20T15:33:36;91.93;;;50.17;;
37485;SDS011;23341;50.296;18.960;2023-12-20T15:38:42;93.75;;;51.00;;
37485;SDS011;23341;50.296;18.960;2023-12-20T15:43:46;75.65;;;43.78;;
37485;SDS011;23341;50.296;18.960;2023-12-20T15:48:51;111.20;;;58.78;;
37485;SDS011;23341;50.296;18.960;2023-12-20T15:53:57;85.07;;;50.85;;
37485;SDS011;23341;50.296;18.960;2023-12-20T15:59:06;94.40;;;56.05;;
37485;SDS011;23341;50.296;18.960;2023-12-20T16:04:10;88.20;;;48.35;;
37485;SDS011;23341;50.296;18.960;2023-12-20T16:09:16;81.20;;;46.65;;
37485;SDS011;23341;50.296;18.960;2023-12-20T16:14:21;71.93;;;41.45;;
37485;SDS011;23341;50.296;18.960;2023-12-20T16:19:28;80.55;;;46.78;;
37485;SDS011;23341;50.296;18.960;2023-12-20T16:24:34;84.93;;;52.28;;
37485;SDS011;23341;50.296;18.960;2023-12-20T16:29:39;93.25;;;58.50;;
37485;SDS011;23341;50.296;18.960;2023-12-20T16:34:43;74.65;;;42.63;;
37485;SDS011;23341;50.296;18.960;2023-12-20T16:39:49;109.28;;;68.28;;
37485;SDS011;23341;50.296;18.960;2023-12-20T16:44:54;110.80;;;72.20;;
37485;SDS011;23341;50.296;18.960;2023-12-20T16:49:59;112.75;;;74.63;;
37485;SDS011;23341;50.296;18.960;2023-12-20T16:55:07;107.07;;;61.40;;
37485;SDS011;23341;50.296;18.960;2023-12-20T17:00:13;100.45;;;57.45;;
37485;SDS011;23341;50.296;18.960;2023-12-20T17:05:20;68.43;;;42.63;;
37485;SDS011;23341;50.296;18.960;2023-12-20T17:10:25;55.13;;;34.47;;
37485;SDS011;23341;50.296;18.960;2023-12-20T17:15:30;60.72;;;37.58;;
37485;SDS011;23341;50.296;18.960;2023-12-20T17:20:35;94.80;;;55.30;;
37485;SDS011;23341;50.296;18.960;2023-12-20T17:25:41;45.90;;;30.38;;
37485;SDS011;23341;50.296;18.960;2023-12-20T17:30:46;67.90;;;35.88;;
37485;SDS011;23341;50.296;18.960;2023-12-20T17:35:51;51.95;;;32.05;;
37485;SDS011;23341;50.296;18.960;2023-12-20T17:40:59;77.60;;;48.38;;
37485;SDS011;23341;50.296;18.960;2023-12-20T17:46:03;112.43;;;65.40;;
37485;SDS011;23341;50.296;18.960;2023-12-20T17:51:08;61.10;;;38.50;;
37485;SDS011;23341;50.296;18.960;2023-12-20T17:56:14;47.05;;;27.77;;
37485;SDS011;23341;50.296;18.960;2023-12-20T18:01:19;50.40;;;28.55;;
37485;SDS011;23341;50.296;18.960;2023-12-20T18:06:24;33.30;;;21.83;;
37485;SDS011;23341;50.296;18.960;2023-12-20T18:11:31;65.20;;;33.35;;
37485;SDS011;23341;50.296;18.960;2023-12-20T18:16:35;39.13;;;22.85;;
37485;SDS011;23341;50.296;18.960;2023-12-20T18:21:40;44.75;;;25.00;;
37485;SDS011;23341;50.296;18.960;2023-12-20T18:26:46;45.25;;;26.85;;
37485;SDS011;23341;50.296;18.960;2023-12-20T18:31:51;35.63;;;22.85;;
37485;SDS011;23341;50.296;18.960;2023-12-20T18:36:55;33.40;;;21.02;;
37485;SDS011;23341;50.296;18.960;2023-12-20T18:42:01;26.65;;;16.83;;
37485;SDS011;23341;50.296;18.960;2023-12-20T18:47:07;17.10;;;11.02;;
37485;SDS011;23341;50.296;18.960;2023-12-20T18:52:12;43.83;;;21.40;;
37485;SDS011;23341;50.296;18.960;2023-12-20T18:57:22;25.40;;;16.87;;
37485;SDS011;23341;50.296;18.960;2023-12-20T19:02:27;23.90;;;12.60;;
37485;SDS011;23341;50.296;18.960;2023-12-20T19:07:34;56.78;;;30.50;;
37485;SDS011;23341;50.296;18.960;2023-12-20T19:12:40;41.53;;;23.38;;
37485;SDS011;23341;50.296;18.960;2023-12-20T19:17:45;20.27;;;11.93;;
37485;SDS011;23341;50.296;18.960;2023-12-20T19:22:50;18.17;;;11.68;;
37485;SDS011;23341;50.296;18.960;2023-12-20T19:27:56;22.67;;;12.55;;
37485;SDS011;23341;50.296;18.960;2023-12-20T19:33:01;19.10;;;13.00;;
37485;SDS011;23341;50.296;18.960;2023-12-20T19:38:05;16.40;;;11.35;;
37485;SDS011;23341;50.296;18.960;2023-12-20T19:43:11;19.45;;;12.20;;
37485;SDS011;23341;50.296;18.960;2023-12-20T19:48:16;33.63;;;21.30;;
37485;SDS011;23341;50.296;18.960;2023-12-20T19:53:20;25.65;;;15.02;;
37485;SDS011;23341;50.296;18.960;2023-12-20T19:58:27;39.20;;;18.10;;
37485;SDS011;23341;50.296;18.960;2023-12-20T20:03:32;31.00;;;17.80;;
37485;SDS011;23341;50.296;18.960;2023-12-20T20:08:37;19.63;;;12.80;;
37485;SDS011;23341;50.296;18.960;2023-12-20T20:13:43;21.50;;;13.00;;
37485;SDS011;23341;50.296;18.960;2023-12-20T20:18:47;27.00;;;17.08;;
37485;SDS011;23341;50.296;18.960;2023-12-20T20:23:52;19.92;;;11.90;;
37485;SDS011;23341;50.296;18.960;2023-12-20T20:28:58;23.83;;;14.23;;
37485;SDS011;23341;50.296;18.960;2023-12-20T20:34:02;24.00;;;13.13;;
37485;SDS011;23341;50.296;18.960;2023-12-20T20:39:08;25.10;;;14.88;;
37485;SDS011;23341;50.296;18.960;2023-12-20T20:44:16;25.67;;;14.60;;
37485;SDS011;23341;50.296;18.960;2023-12-20T20:49:21;17.90;;;9.10;;
37485;SDS011;23341;50.296;18.960;2023-12-20T20:54:27;21.15;;;11.80;;
37485;SDS011;23341;50.296;18.960;2023-12-20T20:59:33;31.98;;;14.45;;
37485;SDS011;23341;50.296;18.960;2023-12-20T21:04:38;30.48;;;16.35;;
37485;SDS011;23341;50.296;18.960;2023-12-20T21:09:42;42.55;;;20.17;;
37485;SDS011;23341;50.296;18.960;2023-12-20T21:14:49;37.90;;;19.65;;
37485;SDS011;23341;50.296;18.960;2023-12-20T21:19:53;33.17;;;16.23;;
37485;SDS011;23341;50.296;18.960;2023-12-20T21:24:58;33.55;;;17.75;;
37485;SDS011;23341;50.296;18.960;2023-12-20T21:30:05;18.35;;;9.38;;
37485;SDS011;23341;50.296;18.960;2023-12-20T21:35:13;25.35;;;12.18;;
37485;SDS011;23341;50.296;18.960;2023-12-20T21:40:18;20.20;;;11.45;;
37485;SDS011;23341;50.296;18.960;2023-12-20T21:45:24;14.23;;;9.13;;
37485;SDS011;23341;50.296;18.960;2023-12-20T21:50:29;10.18;;;7.53;;
37485;SDS011;23341;50.296;18.960;2023-12-20T21:55:33;21.48;;;13.02;;
37485;SDS011;23341;50.296;18.960;2023-12-20T22:00:39;17.58;;;11.10;;
37485;SDS011;23341;50.296;18.960;2023-12-20T22:05:44;17.52;;;8.88;;
37485;SDS011;23341;50.296;18.960;2023-12-20T22:10:49;19.65;;;10.40;;
37485;SDS011;23341;50.296;18.960;2023-12-20T22:15:55;43.38;;;17.73;;
37485;SDS011;23341;50.296;18.960;2023-12-20T22:20:59;18.30;;;10.57;;
37485;SDS011;23341;50.296;18.960;2023-12-20T22:26:04;13.15;;;9.82;;
37485;SDS011;23341;50.296;18.960;2023-12-20T22:31:12;13.43;;;8.65;;
37485;SDS011;23341;50.296;18.960;2023-12-20T22:36:17;12.07;;;8.25;;
37485;SDS011;23341;50.296;18.960;2023-12-20T22:41:21;15.63;;;8.93;;
37485;SDS011;23341;50.296;18.960;2023-12-20T22:46:28;13.18;;;7.50;;
37485;SDS011;23341;50.296;18.960;2023-12-20T22:51:33;15.57;;;6.38;;
37485;SDS011;23341;50.296;18.960;2023-12-20T22:56:37;12.30;;;7.47;;
37485;SDS011;23341;50.296;18.960;2023-12-20T23:01:43;13.65;;;8.27;;
37485;SDS011;23341;50.296;18.960;2023-12-20T23:06:48;11.80;;;7.15;;
37485;SDS011;23341;50.296;18.960;2023-12-20T23:11:52;8.32;;;6.25;;
37485;SDS011;23341;50.296;18.960;2023-12-20T23:16:58;12.15;;;6.47;;
37485;SDS011;23341;50.296;18.960;2023-12-20T23:22:03;15.75;;;7.40;;
37485;SDS011;23341;50.296;18.960;2023-12-20T23:27:07;17.98;;;9.02;;
37485;SDS011;23341;50.296;18.960;2023-12-20T23:32:13;14.82;;;7.95;;
37485;SDS011;23341;50.296;18.960;2023-12-20T23:37:18;10.57;;;7.50;;
37485;SDS011;23341;50.296;18.960;2023-12-20T23:42:22;15.27;;;8.15;;
37485;SDS011;23341;50.296;18.960;2023-12-20T23:47:28;14.60;;;7.90;;
37485;SDS011;23341;50.296;18.960;2023-12-20T23:52:33;16.10;;;8.60;;
37485;SDS011;23341;50.296;18.960;2023-12-20T23:57:38;16.10;;;7.75;;
